sensor_id;sensor_type;location;lat;lon;timestamp;P1;durP1;ratioP1;P2;durP2;ratioP2
77524;SDS011;66638;50.050;21.124;2023-07-22T00:03:16;8.60;;;6.30;;
77524;SDS011;66638;50.050;21.124;2023-07-22T00:06:04;7.40;;;6.60;;
77524;SDS011;66638;50.050;21.124;2023-07-22T00:08:53;8.70;;;6.20;;
77524;SDS011;66638;50.050;21.124;2023-07-22T00:11:40;8.70;;;6.00;;
77524;SDS011;66638;50.050;21.124;2023-07-22T00:14:28;9.70;;;7.00;;
77524;SDS011;66638;50.050;21.124;2023-07-22T00:17:16;7.90;;;6.90;;
77524;SDS011;66638;50.050;21.124;2023-07-22T00:20:03;9.30;;;8.20;;
77524;SDS011;66638;50.050;21.124;2023-07-22T00:22:52;11.00;;;6.90;;
77524;SDS011;66638;50.050;21.124;2023-07-22T00:25:39;9.10;;;6.90;;
77524;SDS011;66638;50.050;21.124;2023-07-22T00:28:27;7.60;;;6.00;;
77524;SDS011;66638;50.050;21.124;2023-07-22T00:31:14;7.20;;;5.70;;
77524;SDS011;66638;50.050;21.124;2023-07-22T00:34:01;6.60;;;5.40;;
77524;SDS011;66638;50.050;21.124;2023-07-22T00:36:48;9.70;;;6.10;;
77524;SDS011;66638;50.050;21.124;2023-07-22T00:39:36;12.80;;;5.50;;
77524;SDS011;66638;50.050;21.124;2023-07-22T00:42:23;8.70;;;5.80;;
77524;SDS011;66638;50.050;21.124;2023-07-22T00:45:11;8.80;;;6.00;;
77524;SDS011;66638;50.050;21.124;2023-07-22T00:47:58;7.20;;;5.20;;
77524;SDS011;66638;50.050;21.124;2023-07-22T00:50:46;8.00;;;5.80;;
77524;SDS011;66638;50.050;21.124;2023-07-22T00:53:33;9.30;;;5.40;;
77524;SDS011;66638;50.050;21.124;2023-07-22T00:56:23;10.20;;;6.30;;
77524;SDS011;66638;50.050;21.124;2023-07-22T00:59:11;8.10;;;6.20;;
77524;SDS011;66638;50.050;21.124;2023-07-22T01:01:59;9.90;;;7.00;;
77524;SDS011;66638;50.050;21.124;2023-07-22T01:04:46;10.20;;;6.60;;
77524;SDS011;66638;50.050;21.124;2023-07-22T01:07:35;8.10;;;6.00;;
77524;SDS011;66638;50.050;21.124;2023-07-22T01:10:22;7.40;;;6.20;;
77524;SDS011;66638;50.050;21.124;2023-07-22T01:13:10;10.70;;;6.80;;
77524;SDS011;66638;50.050;21.124;2023-07-22T01:15:57;7.20;;;6.30;;
77524;SDS011;66638;50.050;21.124;2023-07-22T01:18:44;8.90;;;6.70;;
77524;SDS011;66638;50.050;21.124;2023-07-22T01:21:31;12.70;;;7.00;;
77524;SDS011;66638;50.050;21.124;2023-07-22T01:24:19;9.40;;;6.60;;
77524;SDS011;66638;50.050;21.124;2023-07-22T01:27:07;12.20;;;7.60;;
77524;SDS011;66638;50.050;21.124;2023-07-22T01:29:56;9.70;;;7.10;;
77524;SDS011;66638;50.050;21.124;2023-07-22T01:32:44;11.10;;;6.20;;
77524;SDS011;66638;50.050;21.124;2023-07-22T01:35:32;9.50;;;6.90;;
77524;SDS011;66638;50.050;21.124;2023-07-22T01:38:20;9.70;;;7.50;;
77524;SDS011;66638;50.050;21.124;2023-07-22T01:41:07;9.30;;;7.00;;
77524;SDS011;66638;50.050;21.124;2023-07-22T01:43:54;9.20;;;7.40;;
77524;SDS011;66638;50.050;21.124;2023-07-22T01:46:42;8.90;;;6.90;;
77524;SDS011;66638;50.050;21.124;2023-07-22T01:49:29;8.50;;;6.90;;
77524;SDS011;66638;50.050;21.124;2023-07-22T01:52:17;9.50;;;7.00;;
77524;SDS011;66638;50.050;21.124;2023-07-22T01:55:04;8.70;;;7.60;;
77524;SDS011;66638;50.050;21.124;2023-07-22T01:57:53;9.70;;;6.80;;
77524;SDS011;66638;50.050;21.124;2023-07-22T02:00:41;9.40;;;7.00;;
77524;SDS011;66638;50.050;21.124;2023-07-22T02:03:28;10.00;;;7.40;;
77524;SDS011;66638;50.050;21.124;2023-07-22T02:06:15;9.90;;;7.40;;
77524;SDS011;66638;50.050;21.124;2023-07-22T02:09:02;15.00;;;8.30;;
77524;SDS011;66638;50.050;21.124;2023-07-22T02:11:55;13.20;;;8.80;;
77524;SDS011;66638;50.050;21.124;2023-07-22T02:14:42;10.00;;;8.20;;
77524;SDS011;66638;50.050;21.124;2023-07-22T02:17:30;10.80;;;8.50;;
77524;SDS011;66638;50.050;21.124;2023-07-22T02:20:18;10.90;;;9.40;;
77524;SDS011;66638;50.050;21.124;2023-07-22T02:23:05;10.20;;;8.70;;
77524;SDS011;66638;50.050;21.124;2023-07-22T02:25:52;11.30;;;10.10;;
77524;SDS011;66638;50.050;21.124;2023-07-22T02:28:40;11.30;;;9.30;;
77524;SDS011;66638;50.050;21.124;2023-07-22T02:31:27;10.30;;;9.00;;
77524;SDS011;66638;50.050;21.124;2023-07-22T02:34:15;10.10;;;9.10;;
77524;SDS011;66638;50.050;21.124;2023-07-22T02:37:04;9.60;;;7.70;;
77524;SDS011;66638;50.050;21.124;2023-07-22T02:39:51;10.90;;;7.50;;
77524;SDS011;66638;50.050;21.124;2023-07-22T02:42:40;11.20;;;7.30;;
77524;SDS011;66638;50.050;21.124;2023-07-22T02:45:27;11.90;;;7.30;;
77524;SDS011;66638;50.050;21.124;2023-07-22T02:48:15;9.30;;;8.20;;
77524;SDS011;66638;50.050;21.124;2023-07-22T02:51:03;10.90;;;7.90;;
77524;SDS011;66638;50.050;21.124;2023-07-22T02:53:52;9.70;;;8.40;;
77524;SDS011;66638;50.050;21.124;2023-07-22T02:56:39;8.60;;;7.50;;
77524;SDS011;66638;50.050;21.124;2023-07-22T02:59:27;14.10;;;9.20;;
77524;SDS011;66638;50.050;21.124;2023-07-22T03:02:15;14.40;;;9.50;;
77524;SDS011;66638;50.050;21.124;2023-07-22T03:05:06;14.30;;;11.20;;
77524;SDS011;66638;50.050;21.124;2023-07-22T03:07:55;12.70;;;10.50;;
77524;SDS011;66638;50.050;21.124;2023-07-22T03:10:42;10.90;;;9.00;;
77524;SDS011;66638;50.050;21.124;2023-07-22T03:13:35;13.70;;;10.20;;
77524;SDS011;66638;50.050;21.124;2023-07-22T03:16:22;16.00;;;10.00;;
77524;SDS011;66638;50.050;21.124;2023-07-22T03:19:10;14.00;;;9.80;;
77524;SDS011;66638;50.050;21.124;2023-07-22T03:21:58;15.40;;;10.40;;
77524;SDS011;66638;50.050;21.124;2023-07-22T03:24:45;17.10;;;9.20;;
77524;SDS011;66638;50.050;21.124;2023-07-22T03:27:33;15.10;;;9.70;;
77524;SDS011;66638;50.050;21.124;2023-07-22T03:30:21;13.10;;;9.80;;
77524;SDS011;66638;50.050;21.124;2023-07-22T03:33:09;13.00;;;9.40;;
77524;SDS011;66638;50.050;21.124;2023-07-22T03:35:57;16.50;;;9.20;;
77524;SDS011;66638;50.050;21.124;2023-07-22T03:38:44;11.00;;;8.50;;
77524;SDS011;66638;50.050;21.124;2023-07-22T03:41:31;10.40;;;8.70;;
77524;SDS011;66638;50.050;21.124;2023-07-22T03:44:18;12.60;;;9.20;;
77524;SDS011;66638;50.050;21.124;2023-07-22T03:47:06;11.90;;;8.90;;
77524;SDS011;66638;50.050;21.124;2023-07-22T03:49:53;10.70;;;8.40;;
77524;SDS011;66638;50.050;21.124;2023-07-22T03:52:40;11.90;;;8.60;;
77524;SDS011;66638;50.050;21.124;2023-07-22T03:55:27;9.40;;;7.40;;
77524;SDS011;66638;50.050;21.124;2023-07-22T03:58:15;9.50;;;7.30;;
77524;SDS011;66638;50.050;21.124;2023-07-22T04:01:03;9.40;;;7.70;;
77524;SDS011;66638;50.050;21.124;2023-07-22T04:03:50;11.50;;;8.20;;
77524;SDS011;66638;50.050;21.124;2023-07-22T04:06:37;10.60;;;8.50;;
77524;SDS011;66638;50.050;21.124;2023-07-22T04:09:27;11.30;;;8.90;;
77524;SDS011;66638;50.050;21.124;2023-07-22T04:12:14;12.30;;;8.70;;
77524;SDS011;66638;50.050;21.124;2023-07-22T04:15:02;13.10;;;9.00;;
77524;SDS011;66638;50.050;21.124;2023-07-22T04:17:50;12.00;;;8.40;;
77524;SDS011;66638;50.050;21.124;2023-07-22T04:20:37;13.40;;;8.40;;
77524;SDS011;66638;50.050;21.124;2023-07-22T04:23:24;10.90;;;7.70;;
77524;SDS011;66638;50.050;21.124;2023-07-22T04:26:12;9.30;;;7.00;;
77524;SDS011;66638;50.050;21.124;2023-07-22T04:29:00;9.10;;;6.30;;
77524;SDS011;66638;50.050;21.124;2023-07-22T04:31:47;8.20;;;6.30;;
77524;SDS011;66638;50.050;21.124;2023-07-22T04:34:34;10.90;;;5.90;;
77524;SDS011;66638;50.050;21.124;2023-07-22T04:37:21;10.20;;;6.50;;
77524;SDS011;66638;50.050;21.124;2023-07-22T04:40:08;8.10;;;6.00;;
77524;SDS011;66638;50.050;21.124;2023-07-22T04:43:01;8.90;;;6.20;;
77524;SDS011;66638;50.050;21.124;2023-07-22T04:45:50;8.50;;;5.70;;
77524;SDS011;66638;50.050;21.124;2023-07-22T04:48:37;7.30;;;4.70;;
77524;SDS011;66638;50.050;21.124;2023-07-22T04:51:24;7.60;;;5.20;;
77524;SDS011;66638;50.050;21.124;2023-07-22T04:54:11;8.00;;;5.50;;
77524;SDS011;66638;50.050;21.124;2023-07-22T04:56:59;9.60;;;5.80;;
77524;SDS011;66638;50.050;21.124;2023-07-22T04:59:46;9.00;;;5.60;;
77524;SDS011;66638;50.050;21.124;2023-07-22T05:02:33;8.90;;;6.40;;
77524;SDS011;66638;50.050;21.124;2023-07-22T05:05:21;7.10;;;5.10;;
77524;SDS011;66638;50.050;21.124;2023-07-22T05:08:09;9.40;;;6.20;;
77524;SDS011;66638;50.050;21.124;2023-07-22T05:10:57;9.10;;;5.40;;
77524;SDS011;66638;50.050;21.124;2023-07-22T05:13:43;7.20;;;4.90;;
77524;SDS011;66638;50.050;21.124;2023-07-22T05:16:30;7.10;;;4.90;;
77524;SDS011;66638;50.050;21.124;2023-07-22T05:19:18;8.80;;;4.80;;
77524;SDS011;66638;50.050;21.124;2023-07-22T05:22:07;6.80;;;4.70;;
77524;SDS011;66638;50.050;21.124;2023-07-22T05:24:54;6.70;;;4.90;;
77524;SDS011;66638;50.050;21.124;2023-07-22T05:27:42;5.00;;;3.90;;
77524;SDS011;66638;50.050;21.124;2023-07-22T05:30:29;5.90;;;3.80;;
77524;SDS011;66638;50.050;21.124;2023-07-22T05:33:16;5.20;;;3.60;;
77524;SDS011;66638;50.050;21.124;2023-07-22T05:36:04;4.90;;;3.40;;
77524;SDS011;66638;50.050;21.124;2023-07-22T05:38:51;6.20;;;2.90;;
77524;SDS011;66638;50.050;21.124;2023-07-22T05:41:39;4.00;;;3.30;;
77524;SDS011;66638;50.050;21.124;2023-07-22T05:44:26;6.00;;;3.80;;
77524;SDS011;66638;50.050;21.124;2023-07-22T05:47:13;5.40;;;3.40;;
77524;SDS011;66638;50.050;21.124;2023-07-22T05:50:01;5.40;;;3.20;;
77524;SDS011;66638;50.050;21.124;2023-07-22T05:52:48;6.70;;;3.70;;
77524;SDS011;66638;50.050;21.124;2023-07-22T05:55:35;4.90;;;3.30;;
77524;SDS011;66638;50.050;21.124;2023-07-22T05:58:22;6.40;;;4.00;;
77524;SDS011;66638;50.050;21.124;2023-07-22T06:01:10;5.60;;;4.10;;
77524;SDS011;66638;50.050;21.124;2023-07-22T06:03:58;6.60;;;3.60;;
77524;SDS011;66638;50.050;21.124;2023-07-22T06:06:46;5.40;;;3.80;;
77524;SDS011;66638;50.050;21.124;2023-07-22T06:09:33;5.30;;;3.90;;
77524;SDS011;66638;50.050;21.124;2023-07-22T06:12:22;5.20;;;4.20;;
77524;SDS011;66638;50.050;21.124;2023-07-22T06:15:09;4.80;;;4.10;;
77524;SDS011;66638;50.050;21.124;2023-07-22T06:17:57;6.20;;;4.50;;
77524;SDS011;66638;50.050;21.124;2023-07-22T06:20:44;6.70;;;4.90;;
77524;SDS011;66638;50.050;21.124;2023-07-22T06:23:32;7.30;;;5.20;;
77524;SDS011;66638;50.050;21.124;2023-07-22T06:26:19;6.50;;;4.60;;
77524;SDS011;66638;50.050;21.124;2023-07-22T06:29:06;8.10;;;5.10;;
77524;SDS011;66638;50.050;21.124;2023-07-22T06:31:54;6.10;;;5.50;;
77524;SDS011;66638;50.050;21.124;2023-07-22T06:34:41;6.70;;;4.90;;
77524;SDS011;66638;50.050;21.124;2023-07-22T06:37:29;8.10;;;5.90;;
77524;SDS011;66638;50.050;21.124;2023-07-22T06:40:17;8.50;;;6.40;;
77524;SDS011;66638;50.050;21.124;2023-07-22T06:43:04;7.00;;;5.60;;
77524;SDS011;66638;50.050;21.124;2023-07-22T06:45:52;8.60;;;5.80;;
77524;SDS011;66638;50.050;21.124;2023-07-22T06:48:39;9.30;;;5.80;;
77524;SDS011;66638;50.050;21.124;2023-07-22T06:51:27;8.00;;;6.00;;
77524;SDS011;66638;50.050;21.124;2023-07-22T06:54:14;8.60;;;6.70;;
77524;SDS011;66638;50.050;21.124;2023-07-22T06:57:02;8.60;;;7.40;;
77524;SDS011;66638;50.050;21.124;2023-07-22T06:59:50;8.50;;;6.90;;
77524;SDS011;66638;50.050;21.124;2023-07-22T07:02:37;10.00;;;6.60;;
77524;SDS011;66638;50.050;21.124;2023-07-22T07:05:25;11.10;;;7.20;;
77524;SDS011;66638;50.050;21.124;2023-07-22T07:08:12;7.90;;;7.00;;
77524;SDS011;66638;50.050;21.124;2023-07-22T07:11:00;8.60;;;6.80;;
77524;SDS011;66638;50.050;21.124;2023-07-22T07:13:48;7.80;;;6.80;;
77524;SDS011;66638;50.050;21.124;2023-07-22T07:16:35;8.70;;;5.80;;
77524;SDS011;66638;50.050;21.124;2023-07-22T07:19:22;7.90;;;6.70;;
77524;SDS011;66638;50.050;21.124;2023-07-22T07:22:09;12.40;;;7.60;;
77524;SDS011;66638;50.050;21.124;2023-07-22T07:24:57;10.50;;;6.00;;
77524;SDS011;66638;50.050;21.124;2023-07-22T07:27:44;8.20;;;6.90;;
77524;SDS011;66638;50.050;21.124;2023-07-22T07:30:32;8.20;;;6.20;;
77524;SDS011;66638;50.050;21.124;2023-07-22T07:33:19;9.00;;;6.10;;
77524;SDS011;66638;50.050;21.124;2023-07-22T07:36:07;7.70;;;6.30;;
77524;SDS011;66638;50.050;21.124;2023-07-22T07:38:54;8.00;;;6.30;;
77524;SDS011;66638;50.050;21.124;2023-07-22T07:41:41;10.10;;;6.30;;
77524;SDS011;66638;50.050;21.124;2023-07-22T07:44:29;8.00;;;6.40;;
77524;SDS011;66638;50.050;21.124;2023-07-22T07:47:16;8.40;;;6.40;;
77524;SDS011;66638;50.050;21.124;2023-07-22T07:50:03;8.20;;;6.40;;
77524;SDS011;66638;50.050;21.124;2023-07-22T07:52:57;7.30;;;6.30;;
77524;SDS011;66638;50.050;21.124;2023-07-22T07:55:44;6.60;;;5.70;;
77524;SDS011;66638;50.050;21.124;2023-07-22T07:58:31;8.70;;;6.10;;
77524;SDS011;66638;50.050;21.124;2023-07-22T08:01:19;7.10;;;6.00;;
77524;SDS011;66638;50.050;21.124;2023-07-22T08:04:08;10.50;;;5.80;;
77524;SDS011;66638;50.050;21.124;2023-07-22T08:06:57;9.00;;;5.40;;
77524;SDS011;66638;50.050;21.124;2023-07-22T08:09:46;9.10;;;6.70;;
77524;SDS011;66638;50.050;21.124;2023-07-22T08:12:36;8.90;;;7.00;;
77524;SDS011;66638;50.050;21.124;2023-07-22T08:15:27;8.60;;;6.90;;
77524;SDS011;66638;50.050;21.124;2023-07-22T08:18:15;8.30;;;7.00;;
77524;SDS011;66638;50.050;21.124;2023-07-22T08:21:04;7.30;;;6.20;;
77524;SDS011;66638;50.050;21.124;2023-07-22T08:23:56;6.50;;;5.70;;
77524;SDS011;66638;50.050;21.124;2023-07-22T08:26:44;6.90;;;5.50;;
77524;SDS011;66638;50.050;21.124;2023-07-22T08:29:31;6.90;;;5.90;;
77524;SDS011;66638;50.050;21.124;2023-07-22T08:32:19;7.80;;;5.20;;
77524;SDS011;66638;50.050;21.124;2023-07-22T08:35:07;7.40;;;6.20;;
77524;SDS011;66638;50.050;21.124;2023-07-22T08:37:55;8.50;;;6.70;;
77524;SDS011;66638;50.050;21.124;2023-07-22T08:40:42;8.70;;;6.90;;
77524;SDS011;66638;50.050;21.124;2023-07-22T08:43:29;7.60;;;6.60;;
77524;SDS011;66638;50.050;21.124;2023-07-22T08:46:19;6.70;;;6.10;;
77524;SDS011;66638;50.050;21.124;2023-07-22T08:49:07;7.30;;;6.00;;
77524;SDS011;66638;50.050;21.124;2023-07-22T08:51:55;8.70;;;6.50;;
77524;SDS011;66638;50.050;21.124;2023-07-22T08:54:44;6.30;;;5.70;;
77524;SDS011;66638;50.050;21.124;2023-07-22T08:57:31;5.90;;;4.80;;
77524;SDS011;66638;50.050;21.124;2023-07-22T09:00:19;6.40;;;4.70;;
77524;SDS011;66638;50.050;21.124;2023-07-22T09:03:06;6.70;;;5.10;;
77524;SDS011;66638;50.050;21.124;2023-07-22T09:05:54;5.90;;;4.50;;
77524;SDS011;66638;50.050;21.124;2023-07-22T09:08:42;6.40;;;5.10;;
77524;SDS011;66638;50.050;21.124;2023-07-22T09:11:29;5.00;;;4.30;;
77524;SDS011;66638;50.050;21.124;2023-07-22T09:14:17;4.30;;;3.80;;
77524;SDS011;66638;50.050;21.124;2023-07-22T09:17:05;4.60;;;3.50;;
77524;SDS011;66638;50.050;21.124;2023-07-22T09:19:53;3.70;;;3.20;;
77524;SDS011;66638;50.050;21.124;2023-07-22T09:22:44;5.60;;;3.60;;
77524;SDS011;66638;50.050;21.124;2023-07-22T09:25:33;5.70;;;3.40;;
77524;SDS011;66638;50.050;21.124;2023-07-22T09:28:20;4.30;;;3.50;;
77524;SDS011;66638;50.050;21.124;2023-07-22T09:31:08;4.70;;;3.20;;
77524;SDS011;66638;50.050;21.124;2023-07-22T09:33:56;6.20;;;3.90;;
77524;SDS011;66638;50.050;21.124;2023-07-22T09:36:57;5.20;;;3.60;;
77524;SDS011;66638;50.050;21.124;2023-07-22T09:39:50;6.30;;;3.60;;
77524;SDS011;66638;50.050;21.124;2023-07-22T09:42:38;5.30;;;3.60;;
77524;SDS011;66638;50.050;21.124;2023-07-22T09:45:30;3.80;;;3.30;;
77524;SDS011;66638;50.050;21.124;2023-07-22T09:48:18;6.30;;;3.50;;
77524;SDS011;66638;50.050;21.124;2023-07-22T09:51:13;4.40;;;3.50;;
77524;SDS011;66638;50.050;21.124;2023-07-22T09:54:04;4.00;;;3.60;;
77524;SDS011;66638;50.050;21.124;2023-07-22T09:56:52;4.30;;;3.00;;
77524;SDS011;66638;50.050;21.124;2023-07-22T09:59:40;4.10;;;3.00;;
77524;SDS011;66638;50.050;21.124;2023-07-22T10:02:27;4.40;;;3.20;;
77524;SDS011;66638;50.050;21.124;2023-07-22T10:05:17;3.80;;;3.30;;
77524;SDS011;66638;50.050;21.124;2023-07-22T10:08:09;5.10;;;3.20;;
77524;SDS011;66638;50.050;21.124;2023-07-22T10:10:59;4.00;;;2.80;;
77524;SDS011;66638;50.050;21.124;2023-07-22T10:13:53;5.10;;;3.10;;
77524;SDS011;66638;50.050;21.124;2023-07-22T10:16:40;5.40;;;3.10;;
77524;SDS011;66638;50.050;21.124;2023-07-22T10:19:28;3.90;;;2.80;;
77524;SDS011;66638;50.050;21.124;2023-07-22T10:22:16;3.80;;;2.80;;
77524;SDS011;66638;50.050;21.124;2023-07-22T10:25:06;4.50;;;2.60;;
77524;SDS011;66638;50.050;21.124;2023-07-22T10:27:55;5.10;;;3.00;;
77524;SDS011;66638;50.050;21.124;2023-07-22T10:30:43;4.40;;;2.90;;
77524;SDS011;66638;50.050;21.124;2023-07-22T10:33:30;5.30;;;2.60;;
77524;SDS011;66638;50.050;21.124;2023-07-22T10:36:17;4.30;;;2.80;;
77524;SDS011;66638;50.050;21.124;2023-07-22T10:39:05;3.70;;;2.60;;
77524;SDS011;66638;50.050;21.124;2023-07-22T10:42:04;4.20;;;2.80;;
77524;SDS011;66638;50.050;21.124;2023-07-22T10:44:52;5.10;;;3.00;;
77524;SDS011;66638;50.050;21.124;2023-07-22T10:47:39;3.30;;;2.20;;
77524;SDS011;66638;50.050;21.124;2023-07-22T10:50:37;5.30;;;2.70;;
77524;SDS011;66638;50.050;21.124;2023-07-22T10:53:42;4.40;;;2.40;;
77524;SDS011;66638;50.050;21.124;2023-07-22T10:56:35;4.10;;;2.70;;
77524;SDS011;66638;50.050;21.124;2023-07-22T10:59:26;4.20;;;2.80;;
77524;SDS011;66638;50.050;21.124;2023-07-22T11:05:22;5.10;;;2.90;;
77524;SDS011;66638;50.050;21.124;2023-07-22T11:08:38;4.40;;;2.20;;
77524;SDS011;66638;50.050;21.124;2023-07-22T11:14:35;3.40;;;2.60;;
77524;SDS011;66638;50.050;21.124;2023-07-22T11:17:29;4.10;;;2.30;;
77524;SDS011;66638;50.050;21.124;2023-07-22T11:20:18;3.90;;;2.40;;
77524;SDS011;66638;50.050;21.124;2023-07-22T11:23:08;3.40;;;2.30;;
77524;SDS011;66638;50.050;21.124;2023-07-22T11:25:56;3.50;;;2.70;;
77524;SDS011;66638;50.050;21.124;2023-07-22T11:28:45;5.40;;;2.80;;
77524;SDS011;66638;50.050;21.124;2023-07-22T11:31:34;6.20;;;2.70;;
77524;SDS011;66638;50.050;21.124;2023-07-22T11:34:24;4.60;;;2.70;;
77524;SDS011;66638;50.050;21.124;2023-07-22T11:37:12;4.70;;;2.70;;
77524;SDS011;66638;50.050;21.124;2023-07-22T11:40:01;4.90;;;2.50;;
77524;SDS011;66638;50.050;21.124;2023-07-22T11:42:49;4.00;;;2.50;;
77524;SDS011;66638;50.050;21.124;2023-07-22T11:45:38;5.00;;;2.90;;
77524;SDS011;66638;50.050;21.124;2023-07-22T11:48:26;3.20;;;2.60;;
77524;SDS011;66638;50.050;21.124;2023-07-22T11:51:13;5.30;;;2.90;;
77524;SDS011;66638;50.050;21.124;2023-07-22T11:54:04;3.70;;;2.60;;
77524;SDS011;66638;50.050;21.124;2023-07-22T11:56:56;3.50;;;2.60;;
77524;SDS011;66638;50.050;21.124;2023-07-22T11:59:45;3.10;;;2.50;;
77524;SDS011;66638;50.050;21.124;2023-07-22T12:02:35;2.80;;;2.10;;
77524;SDS011;66638;50.050;21.124;2023-07-22T12:05:23;4.80;;;2.90;;
77524;SDS011;66638;50.050;21.124;2023-07-22T12:08:14;3.80;;;2.60;;
77524;SDS011;66638;50.050;21.124;2023-07-22T12:11:02;3.10;;;2.30;;
77524;SDS011;66638;50.050;21.124;2023-07-22T12:16:59;3.30;;;2.60;;
77524;SDS011;66638;50.050;21.124;2023-07-22T12:19:52;4.80;;;2.70;;
77524;SDS011;66638;50.050;21.124;2023-07-22T12:22:40;4.50;;;2.60;;
77524;SDS011;66638;50.050;21.124;2023-07-22T12:25:28;3.50;;;2.50;;
77524;SDS011;66638;50.050;21.124;2023-07-22T12:28:16;4.90;;;2.30;;
77524;SDS011;66638;50.050;21.124;2023-07-22T12:31:03;3.10;;;2.10;;
77524;SDS011;66638;50.050;21.124;2023-07-22T12:33:50;3.40;;;2.40;;
77524;SDS011;66638;50.050;21.124;2023-07-22T12:36:37;3.70;;;2.30;;
77524;SDS011;66638;50.050;21.124;2023-07-22T12:39:24;5.10;;;2.60;;
77524;SDS011;66638;50.050;21.124;2023-07-22T12:42:12;5.10;;;2.50;;
77524;SDS011;66638;50.050;21.124;2023-07-22T12:44:59;4.10;;;2.50;;
77524;SDS011;66638;50.050;21.124;2023-07-22T12:47:46;3.90;;;2.50;;
77524;SDS011;66638;50.050;21.124;2023-07-22T12:50:35;6.10;;;2.40;;
77524;SDS011;66638;50.050;21.124;2023-07-22T12:53:24;2.90;;;2.20;;
77524;SDS011;66638;50.050;21.124;2023-07-22T12:56:11;4.20;;;2.40;;
77524;SDS011;66638;50.050;21.124;2023-07-22T12:58:59;3.90;;;2.50;;
77524;SDS011;66638;50.050;21.124;2023-07-22T13:01:46;4.10;;;2.10;;
77524;SDS011;66638;50.050;21.124;2023-07-22T13:04:33;3.60;;;2.10;;
77524;SDS011;66638;50.050;21.124;2023-07-22T13:07:20;4.60;;;2.30;;
77524;SDS011;66638;50.050;21.124;2023-07-22T13:10:07;3.10;;;2.30;;
77524;SDS011;66638;50.050;21.124;2023-07-22T13:12:57;3.10;;;2.10;;
77524;SDS011;66638;50.050;21.124;2023-07-22T13:15:44;3.60;;;2.10;;
77524;SDS011;66638;50.050;21.124;2023-07-22T13:18:31;4.20;;;2.40;;
77524;SDS011;66638;50.050;21.124;2023-07-22T13:21:19;3.70;;;2.40;;
77524;SDS011;66638;50.050;21.124;2023-07-22T13:24:06;3.80;;;2.20;;
77524;SDS011;66638;50.050;21.124;2023-07-22T13:26:53;5.80;;;2.60;;
77524;SDS011;66638;50.050;21.124;2023-07-22T13:29:40;4.30;;;2.30;;
77524;SDS011;66638;50.050;21.124;2023-07-22T13:32:27;3.80;;;2.40;;
77524;SDS011;66638;50.050;21.124;2023-07-22T13:35:14;4.40;;;2.50;;
77524;SDS011;66638;50.050;21.124;2023-07-22T13:38:01;4.50;;;2.20;;
77524;SDS011;66638;50.050;21.124;2023-07-22T13:40:48;4.20;;;2.20;;
77524;SDS011;66638;50.050;21.124;2023-07-22T13:43:36;4.20;;;2.40;;
77524;SDS011;66638;50.050;21.124;2023-07-22T13:46:24;4.20;;;2.10;;
77524;SDS011;66638;50.050;21.124;2023-07-22T13:49:11;2.90;;;2.10;;
77524;SDS011;66638;50.050;21.124;2023-07-22T13:51:58;3.20;;;2.40;;
77524;SDS011;66638;50.050;21.124;2023-07-22T13:54:46;2.40;;;1.90;;
77524;SDS011;66638;50.050;21.124;2023-07-22T13:57:33;4.30;;;3.00;;
77524;SDS011;66638;50.050;21.124;2023-07-22T14:00:21;4.00;;;2.30;;
77524;SDS011;66638;50.050;21.124;2023-07-22T14:03:09;3.90;;;2.90;;
77524;SDS011;66638;50.050;21.124;2023-07-22T14:05:57;4.40;;;2.70;;
77524;SDS011;66638;50.050;21.124;2023-07-22T14:08:44;4.20;;;2.70;;
77524;SDS011;66638;50.050;21.124;2023-07-22T14:11:31;3.70;;;2.60;;
77524;SDS011;66638;50.050;21.124;2023-07-22T14:14:19;4.50;;;2.30;;
77524;SDS011;66638;50.050;21.124;2023-07-22T14:17:06;3.80;;;2.20;;
77524;SDS011;66638;50.050;21.124;2023-07-22T14:19:54;3.40;;;2.40;;
77524;SDS011;66638;50.050;21.124;2023-07-22T14:22:41;4.80;;;2.40;;
77524;SDS011;66638;50.050;21.124;2023-07-22T14:25:29;3.70;;;2.60;;
77524;SDS011;66638;50.050;21.124;2023-07-22T14:28:16;3.80;;;2.90;;
77524;SDS011;66638;50.050;21.124;2023-07-22T14:31:04;4.30;;;2.90;;
77524;SDS011;66638;50.050;21.124;2023-07-22T14:33:51;3.90;;;2.70;;
77524;SDS011;66638;50.050;21.124;2023-07-22T14:36:38;3.50;;;2.30;;
77524;SDS011;66638;50.050;21.124;2023-07-22T14:39:26;5.60;;;2.90;;
77524;SDS011;66638;50.050;21.124;2023-07-22T14:42:13;3.60;;;2.40;;
77524;SDS011;66638;50.050;21.124;2023-07-22T14:45:00;4.70;;;2.40;;
77524;SDS011;66638;50.050;21.124;2023-07-22T14:47:47;4.50;;;2.70;;
77524;SDS011;66638;50.050;21.124;2023-07-22T14:50:35;4.50;;;2.80;;
77524;SDS011;66638;50.050;21.124;2023-07-22T14:53:22;3.60;;;2.50;;
77524;SDS011;66638;50.050;21.124;2023-07-22T14:56:10;4.60;;;3.30;;
77524;SDS011;66638;50.050;21.124;2023-07-22T14:58:57;5.60;;;2.90;;
77524;SDS011;66638;50.050;21.124;2023-07-22T15:01:45;4.10;;;2.90;;
77524;SDS011;66638;50.050;21.124;2023-07-22T15:04:33;6.20;;;2.90;;
77524;SDS011;66638;50.050;21.124;2023-07-22T15:07:21;7.70;;;2.80;;
77524;SDS011;66638;50.050;21.124;2023-07-22T15:10:09;5.10;;;3.60;;
77524;SDS011;66638;50.050;21.124;2023-07-22T15:12:56;5.40;;;4.50;;
77524;SDS011;66638;50.050;21.124;2023-07-22T15:15:44;5.70;;;4.20;;
77524;SDS011;66638;50.050;21.124;2023-07-22T15:18:31;5.00;;;3.00;;
77524;SDS011;66638;50.050;21.124;2023-07-22T15:21:18;8.60;;;5.40;;
77524;SDS011;66638;50.050;21.124;2023-07-22T15:24:06;4.70;;;3.60;;
77524;SDS011;66638;50.050;21.124;2023-07-22T15:26:53;5.70;;;4.20;;
77524;SDS011;66638;50.050;21.124;2023-07-22T15:29:41;5.60;;;4.20;;
77524;SDS011;66638;50.050;21.124;2023-07-22T15:32:28;7.70;;;5.20;;
77524;SDS011;66638;50.050;21.124;2023-07-22T15:35:16;5.60;;;4.20;;
77524;SDS011;66638;50.050;21.124;2023-07-22T15:38:03;5.00;;;3.30;;
77524;SDS011;66638;50.050;21.124;2023-07-22T15:40:50;6.40;;;4.70;;
77524;SDS011;66638;50.050;21.124;2023-07-22T15:43:38;7.60;;;4.90;;
77524;SDS011;66638;50.050;21.124;2023-07-22T15:46:25;7.50;;;3.80;;
77524;SDS011;66638;50.050;21.124;2023-07-22T15:49:13;4.70;;;3.20;;
77524;SDS011;66638;50.050;21.124;2023-07-22T15:52:01;4.90;;;3.60;;
77524;SDS011;66638;50.050;21.124;2023-07-22T15:54:49;5.00;;;3.70;;
77524;SDS011;66638;50.050;21.124;2023-07-22T15:57:37;8.10;;;4.30;;
77524;SDS011;66638;50.050;21.124;2023-07-22T16:00:25;6.10;;;3.80;;
77524;SDS011;66638;50.050;21.124;2023-07-22T16:03:12;6.10;;;3.00;;
77524;SDS011;66638;50.050;21.124;2023-07-22T16:06:01;8.10;;;3.50;;
77524;SDS011;66638;50.050;21.124;2023-07-22T16:08:48;6.50;;;3.50;;
77524;SDS011;66638;50.050;21.124;2023-07-22T16:11:36;7.00;;;4.50;;
77524;SDS011;66638;50.050;21.124;2023-07-22T16:14:23;6.50;;;3.40;;
77524;SDS011;66638;50.050;21.124;2023-07-22T16:17:11;5.50;;;4.00;;
77524;SDS011;66638;50.050;21.124;2023-07-22T16:19:58;4.20;;;2.90;;
77524;SDS011;66638;50.050;21.124;2023-07-22T16:22:45;4.20;;;2.90;;
77524;SDS011;66638;50.050;21.124;2023-07-22T16:25:33;4.20;;;2.90;;
77524;SDS011;66638;50.050;21.124;2023-07-22T16:28:20;4.00;;;2.70;;
77524;SDS011;66638;50.050;21.124;2023-07-22T16:31:07;4.00;;;3.10;;
77524;SDS011;66638;50.050;21.124;2023-07-22T16:33:54;5.60;;;4.20;;
77524;SDS011;66638;50.050;21.124;2023-07-22T16:36:42;5.10;;;3.30;;
77524;SDS011;66638;50.050;21.124;2023-07-22T16:39:29;6.00;;;3.40;;
77524;SDS011;66638;50.050;21.124;2023-07-22T16:42:17;5.80;;;3.70;;
77524;SDS011;66638;50.050;21.124;2023-07-22T16:45:04;5.60;;;3.30;;
77524;SDS011;66638;50.050;21.124;2023-07-22T16:47:54;5.30;;;3.70;;